createdAt,value
2022-08-27T00:01:49.583Z,47.68
2022-08-27T00:04:16.929Z,48.65
2022-08-27T00:06:47.412Z,48.79
2022-08-27T00:09:14.854Z,49.65
2022-08-27T00:11:43.816Z,50.91
2022-08-27T00:14:11.433Z,52.01
2022-08-27T00:16:39.511Z,50.63
2022-08-27T00:19:06.902Z,50.88
2022-08-27T00:21:34.288Z,51.97
2022-08-27T00:24:01.558Z,49.44
2022-08-27T00:26:29.275Z,48.32
2022-08-27T00:28:57.387Z,48.28
2022-08-27T00:31:27.333Z,48.27
2022-08-27T00:33:55.638Z,47.16
2022-08-27T00:36:22.992Z,47.67
2022-08-27T00:38:53.794Z,47.33
2022-08-27T00:41:21.940Z,47.02
2022-08-27T00:43:54.046Z,46.79
2022-08-27T00:46:44.819Z,46.99
2022-08-27T00:49:19.629Z,47.41
2022-08-27T00:52:00.619Z,48.59
2022-08-27T00:54:28.805Z,49.64
2022-08-27T00:56:57.435Z,50.38
2022-08-27T00:59:29.357Z,51.78
2022-08-27T01:02:16.698Z,51.87
2022-08-27T01:04:47.583Z,50.80
2022-08-27T01:07:14.847Z,50.20
2022-08-27T01:09:45.153Z,49.76
2022-08-27T01:12:14.630Z,50.25
2022-08-27T01:14:44.563Z,50.01
2022-08-27T01:17:13.541Z,49.49
2022-08-27T01:19:40.476Z,48.76
2022-08-27T01:22:30.961Z,48.42
2022-08-27T01:25:02.768Z,48.32
2022-08-27T01:27:34.507Z,47.86
2022-08-27T01:30:02.713Z,47.92
2022-08-27T01:32:33.912Z,48.13
2022-08-27T01:35:02.736Z,47.78
2022-08-27T01:37:29.959Z,47.38
2022-08-27T01:40:01.800Z,47.42
2022-08-27T01:42:40.232Z,47.05
2022-08-27T01:45:38.637Z,47.43
2022-08-27T01:48:08.239Z,47.11
2022-08-27T01:50:39.050Z,46.98
2022-08-27T01:53:12.812Z,47.29
2022-08-27T01:55:43.456Z,47.51
2022-08-27T01:58:16.309Z,47.69
2022-08-27T02:00:46.916Z,48.00
2022-08-27T02:03:14.074Z,48.21
2022-08-27T02:05:42.265Z,47.99
2022-08-27T02:08:13.484Z,48.14
2022-08-27T02:10:40.794Z,48.67
2022-08-27T02:13:08.465Z,48.37
2022-08-27T02:15:40.500Z,48.93
2022-08-27T02:18:08.507Z,49.13
2022-08-27T02:20:37.108Z,49.26
2022-08-27T02:23:05.080Z,49.38
2022-08-27T02:25:34.164Z,49.76
2022-08-27T02:28:02.150Z,50.32
2022-08-27T02:30:32.227Z,50.67
2022-08-27T02:33:01.130Z,50.47
2022-08-27T02:35:30.300Z,50.52
2022-08-27T02:37:58.453Z,50.49
2022-08-27T02:40:26.466Z,50.47
2022-08-27T02:42:54.109Z,50.81
2022-08-27T02:45:21.820Z,50.94
2022-08-27T02:47:48.918Z,51.12
2022-08-27T02:50:17.449Z,51.54
2022-08-27T02:52:46.470Z,51.54
2022-08-27T02:55:17.253Z,51.84
2022-08-27T02:57:45.614Z,51.63
2022-08-27T03:00:16.417Z,51.87
2022-08-27T03:03:10.817Z,52.07
2022-08-27T03:05:39.796Z,52.60
2022-08-27T03:08:07.957Z,52.50
2022-08-27T03:10:35.373Z,52.75
2022-08-27T03:13:02.789Z,52.83
2022-08-27T03:15:29.838Z,53.32
2022-08-27T03:18:15.462Z,53.37
2022-08-27T03:20:44.700Z,53.35
2022-08-27T03:23:14.733Z,53.38
2022-08-27T03:25:51.508Z,54.03
2022-08-27T03:28:23.294Z,53.65
2022-08-27T03:30:59.025Z,54.07
2022-08-27T03:33:29.142Z,54.29
2022-08-27T03:35:56.378Z,54.71
2022-08-27T03:38:25.204Z,55.00
2022-08-27T03:40:55.108Z,55.40
2022-08-27T03:43:23.579Z,55.79
2022-08-27T03:46:01.851Z,55.62
2022-08-27T03:48:32.050Z,55.57
2022-08-27T03:50:59.800Z,55.65
2022-08-27T03:53:28.355Z,55.35
2022-08-27T03:55:55.581Z,55.21
2022-08-27T03:58:22.706Z,54.83
2022-08-27T04:00:49.715Z,54.72
2022-08-27T04:03:19.870Z,54.72
2022-08-27T04:05:52.885Z,54.71
2022-08-27T04:08:20.189Z,54.62
2022-08-27T04:10:48.015Z,54.38
2022-08-27T04:13:15.410Z,53.61
2022-08-27T04:15:44.705Z,53.21
2022-08-27T04:18:12.768Z,52.78
2022-08-27T04:20:39.786Z,52.06
2022-08-27T04:23:07.232Z,51.18
2022-08-27T04:25:36.575Z,50.76
2022-08-27T04:28:03.924Z,49.49
2022-08-27T04:30:31.557Z,49.51
2022-08-27T04:32:59.485Z,48.93
2022-08-27T04:35:26.856Z,48.32
2022-08-27T04:37:54.356Z,48.20
2022-08-27T04:40:21.409Z,47.64
2022-08-27T04:42:52.864Z,47.77
2022-08-27T04:45:21.330Z,48.06
2022-08-27T04:47:48.675Z,47.30
2022-08-27T04:50:16.187Z,46.68
2022-08-27T04:52:43.688Z,46.82
2022-08-27T04:55:11.810Z,46.33
2022-08-27T04:57:46.127Z,45.73
2022-08-27T05:00:14.083Z,46.05
2022-08-27T05:02:41.126Z,43.75
2022-08-27T05:05:15.451Z,43.66
2022-08-27T05:07:43.991Z,43.55
2022-08-27T05:10:14.192Z,40.49
2022-08-27T05:12:44.262Z,41.10
2022-08-27T05:15:12.018Z,40.46
2022-08-27T05:17:39.125Z,41.05
2022-08-27T05:20:08.434Z,41.29
2022-08-27T05:22:39.734Z,42.14
2022-08-27T05:25:08.082Z,42.74
2022-08-27T05:27:34.905Z,43.26
2022-08-27T05:30:02.411Z,43.39
2022-08-27T05:32:29.655Z,43.35
2022-08-27T05:34:56.806Z,43.60
2022-08-27T05:37:24.251Z,43.62
2022-08-27T05:39:51.307Z,44.49
2022-08-27T05:42:19.777Z,44.19
2022-08-27T05:44:47.090Z,44.32
2022-08-27T05:47:14.116Z,44.81
2022-08-27T05:49:41.340Z,44.32
2022-08-27T05:52:12.695Z,43.97
2022-08-27T05:54:50.089Z,44.43
2022-08-27T05:57:17.855Z,43.63
2022-08-27T06:00:03.658Z,44.13
2022-08-27T06:02:31.225Z,44.36
2022-08-27T06:04:58.555Z,44.57
2022-08-27T06:07:25.655Z,43.32
2022-08-27T06:09:52.938Z,43.88
2022-08-27T06:12:28.067Z,44.37
2022-08-27T06:14:56.647Z,44.10
2022-08-27T06:17:23.834Z,43.43
2022-08-27T06:19:51.157Z,42.79
2022-08-27T06:22:18.425Z,42.40
2022-08-27T06:24:46.715Z,42.66
2022-08-27T06:27:22.594Z,42.67
2022-08-27T06:29:51.497Z,43.11
2022-08-27T06:32:18.856Z,42.42
2022-08-27T06:34:45.807Z,42.35
2022-08-27T06:37:13.115Z,43.09
2022-08-27T06:39:40.606Z,42.50
2022-08-27T06:42:11.999Z,42.12
2022-08-27T06:44:40.405Z,42.47
2022-08-27T06:49:58.877Z,41.97
2022-08-27T06:52:26.519Z,41.45
2022-08-27T06:57:37.614Z,40.21
2022-08-27T07:00:07.672Z,40.65
2022-08-27T07:02:35.090Z,40.38
2022-08-27T07:05:12.061Z,40.90
2022-08-27T07:07:44.179Z,40.25
2022-08-27T07:10:15.392Z,40.31
2022-08-27T07:12:51.160Z,40.57
2022-08-27T07:15:25.898Z,39.87
2022-08-27T07:17:58.840Z,40.80
2022-08-27T07:20:29.569Z,41.12
2022-08-27T07:23:03.270Z,41.65
2022-08-27T07:25:48.159Z,41.53
2022-08-27T07:28:16.342Z,40.93
2022-08-27T07:30:43.659Z,40.34
2022-08-27T07:33:11.349Z,41.38
2022-08-27T07:35:40.012Z,41.12
2022-08-27T07:38:13.281Z,41.07
2022-08-27T07:43:40.911Z,40.17
2022-08-27T07:46:08.354Z,40.21
2022-08-27T07:48:38.001Z,39.56
2022-08-27T07:51:05.629Z,39.59
2022-08-27T07:53:35.431Z,39.34
2022-08-27T07:56:04.540Z,39.09
2022-08-27T08:01:34.132Z,38.91
2022-08-27T08:04:01.506Z,39.13
2022-08-27T08:06:32.639Z,37.65
2022-08-27T08:09:13.121Z,37.77
2022-08-27T08:11:53.320Z,37.72
2022-08-27T08:14:23.480Z,37.41
2022-08-27T08:16:50.945Z,38.27
2022-08-27T08:19:20.707Z,35.72
2022-08-27T08:21:47.817Z,35.24
2022-08-27T08:24:18.266Z,34.08
2022-08-27T08:26:45.484Z,32.43
2022-08-27T08:29:18.058Z,31.45
2022-08-27T08:31:50.411Z,31.81
2022-08-27T08:34:19.782Z,28.47
2022-08-27T08:36:53.990Z,29.17
2022-08-27T08:39:22.552Z,28.16
2022-08-27T08:41:58.371Z,28.57
2022-08-27T08:45:07.892Z,28.34
2022-08-27T08:47:51.744Z,27.44
2022-08-27T08:51:04.728Z,28.73
2022-08-27T08:53:39.746Z,27.40
2022-08-27T08:56:29.585Z,26.97
2022-08-27T08:59:10.357Z,25.71
2022-08-27T09:01:38.503Z,25.54
2022-08-27T09:04:35.739Z,23.66
2022-08-27T09:07:31.149Z,24.03
2022-08-27T09:10:27.029Z,21.76
2022-08-27T09:12:59.438Z,21.69
2022-08-27T09:15:33.913Z,23.01
2022-08-27T09:18:14.775Z,23.65
2022-08-27T09:20:48.331Z,23.48
2022-08-27T09:23:28.447Z,23.21
2022-08-27T09:25:56.537Z,21.52
2022-08-27T09:35:13.937Z,22.05
2022-08-27T09:38:07.576Z,21.03
2022-08-27T09:40:52.107Z,19.95
2022-08-27T09:43:29.398Z,20.86
2022-08-27T09:46:21.730Z,21.65
2022-08-27T09:52:48.848Z,20.48
2022-08-27T09:55:38.051Z,19.74
2022-08-27T09:58:30.615Z,20.12
2022-08-27T10:01:21.258Z,20.60
2022-08-27T10:03:55.360Z,20.44
2022-08-27T10:06:33.048Z,19.43
2022-08-27T10:12:23.263Z,20.99
2022-08-27T10:14:55.364Z,21.02
2022-08-27T10:17:28.963Z,20.51
2022-08-27T10:20:17.258Z,20.12
2022-08-27T10:27:08.661Z,19.28
2022-08-27T10:29:52.153Z,19.61
2022-08-27T10:32:55.236Z,21.22
2022-08-27T10:35:28.543Z,21.60
2022-08-27T10:38:21.835Z,22.92
2022-08-27T10:41:02.813Z,23.63
2022-08-27T10:44:02.347Z,24.63
2022-08-27T10:47:11.265Z,25.83
2022-08-27T10:49:58.932Z,25.16
2022-08-27T10:52:53.438Z,25.79
2022-08-27T10:55:38.918Z,26.30
2022-08-27T11:02:12.201Z,26.69
2022-08-27T11:04:49.672Z,28.15
2022-08-27T11:07:43.281Z,28.61
2022-08-27T11:10:20.954Z,29.21
2022-08-27T11:12:51.888Z,28.30
2022-08-27T11:15:38.261Z,28.92
2022-08-27T11:18:41.001Z,28.93
2022-08-27T11:22:02.462Z,30.44
2022-08-27T11:27:43.524Z,30.23
2022-08-27T11:30:29.909Z,29.69
2022-08-27T11:33:02.728Z,29.75
2022-08-27T11:36:08.823Z,30.67
2022-08-27T11:39:02.007Z,30.65
2022-08-27T11:41:44.746Z,30.80
2022-08-27T11:44:32.525Z,30.24
2022-08-27T11:47:24.911Z,29.99
2022-08-27T11:49:56.407Z,30.51
2022-08-27T11:53:09.197Z,30.98
2022-08-27T11:55:40.424Z,30.56
2022-08-27T11:58:26.543Z,31.01
2022-08-27T12:00:54.563Z,30.86
2022-08-27T12:03:21.951Z,31.48
2022-08-27T12:05:52.889Z,30.90
2022-08-27T12:08:22.995Z,30.72
2022-08-27T12:11:19.001Z,31.45
2022-08-27T12:14:11.187Z,30.56
2022-08-27T12:16:48.847Z,30.12
2022-08-27T12:19:44.276Z,29.38
2022-08-27T12:22:26.670Z,29.85
2022-08-27T12:25:20.298Z,29.81
2022-08-27T12:28:06.744Z,29.90
2022-08-27T12:30:35.503Z,30.31
2022-08-27T12:33:27.538Z,31.39
2022-08-27T12:36:13.740Z,31.11
2022-08-27T12:39:05.363Z,30.77
2022-08-27T12:41:44.278Z,30.94
2022-08-27T12:47:18.496Z,31.45
2022-08-27T12:49:55.883Z,30.84
2022-08-27T12:52:33.449Z,30.05
2022-08-27T12:55:16.858Z,29.96
2022-08-27T12:58:00.629Z,29.58
2022-08-27T13:00:37.970Z,30.19
2022-08-27T13:06:29.336Z,29.93
2022-08-27T13:09:13.451Z,30.93
2022-08-27T13:11:50.354Z,30.20
2022-08-27T13:14:20.677Z,29.88
2022-08-27T13:16:59.515Z,30.31
2022-08-27T13:19:32.131Z,30.26
2022-08-27T13:22:01.746Z,30.26
2022-08-27T13:24:45.803Z,30.54
2022-08-27T13:27:13.587Z,30.63
2022-08-27T13:29:42.710Z,30.67
2022-08-27T13:32:14.552Z,30.11
2022-08-27T13:34:42.504Z,30.05
2022-08-27T13:37:30.608Z,31.13
2022-08-27T13:40:10.105Z,31.45
2022-08-27T13:42:48.119Z,30.77
2022-08-27T13:45:17.960Z,30.35
2022-08-27T13:47:48.028Z,30.31
2022-08-27T13:50:25.824Z,30.84
2022-08-27T13:53:20.169Z,31.61
2022-08-27T13:55:49.793Z,31.39
2022-08-27T13:58:27.206Z,30.43
2022-08-27T14:00:55.867Z,30.38
2022-08-27T14:03:35.579Z,30.71
2022-08-27T14:06:03.167Z,31.08
2022-08-27T14:08:36.239Z,31.26
2022-08-27T14:11:13.080Z,30.64
2022-08-27T14:13:45.187Z,31.23
2022-08-27T14:16:23.938Z,31.74
2022-08-27T14:19:02.772Z,31.25
2022-08-27T14:21:35.713Z,31.32
2022-08-27T14:24:03.536Z,31.62
2022-08-27T14:26:31.789Z,30.30
2022-08-27T14:28:59.473Z,30.06
2022-08-27T14:31:27.673Z,30.32
2022-08-27T14:33:56.126Z,30.80
2022-08-27T14:36:25.268Z,30.95
2022-08-27T14:38:52.951Z,30.82
2022-08-27T14:41:22.191Z,31.62
2022-08-27T14:55:21.434Z,32.47
2022-08-27T14:57:49.758Z,32.40
2022-08-27T15:01:02.561Z,32.29
2022-08-27T15:03:30.541Z,32.58
2022-08-27T15:05:57.670Z,32.64
2022-08-27T15:08:29.079Z,31.74
2022-08-27T15:14:11.590Z,32.12
2022-08-27T15:16:47.009Z,32.61
2022-08-27T15:19:20.531Z,32.94
2022-08-27T15:21:50.536Z,33.44
2022-08-27T15:24:26.473Z,33.83
2022-08-27T15:27:01.842Z,33.59
2022-08-27T15:29:29.523Z,33.75
2022-08-27T15:31:57.445Z,34.09
2022-08-27T15:34:24.939Z,33.94
2022-08-27T15:36:52.090Z,34.26
2022-08-27T15:39:19.685Z,34.03
2022-08-27T15:42:05.164Z,34.57
2022-08-27T15:44:33.929Z,34.74
2022-08-27T15:47:00.982Z,34.48
2022-08-27T15:49:28.455Z,34.92
2022-08-27T15:51:55.989Z,35.23
2022-08-27T15:54:27.145Z,34.73
2022-08-27T15:56:54.475Z,34.96
2022-08-27T15:59:21.789Z,35.19
2022-08-27T16:01:49.009Z,35.89
2022-08-27T16:04:16.348Z,36.49
2022-08-27T16:06:43.759Z,36.64
2022-08-27T16:09:11.772Z,36.95
2022-08-27T16:11:41.154Z,37.35
2022-08-27T16:14:11.487Z,37.20
2022-08-27T16:16:40.419Z,36.82
2022-08-27T16:19:12.577Z,37.28
2022-08-27T16:21:48.246Z,37.52
2022-08-27T16:24:21.698Z,38.13
2022-08-27T16:26:50.579Z,38.03
2022-08-27T16:29:17.999Z,38.49
2022-08-27T16:31:49.877Z,38.32
2022-08-27T16:34:21.673Z,38.33
2022-08-27T16:36:48.812Z,38.73
2022-08-27T16:39:15.833Z,38.75
2022-08-27T16:41:50.534Z,38.82
2022-08-27T16:44:18.527Z,39.00
2022-08-27T16:46:45.981Z,39.73
2022-08-27T16:49:31.670Z,39.90
2022-08-27T16:52:01.486Z,40.10
2022-08-27T16:54:29.189Z,40.34
2022-08-27T16:56:59.266Z,41.15
2022-08-27T16:59:26.793Z,41.49
2022-08-27T17:02:07.436Z,44.26
2022-08-27T17:04:41.878Z,45.28
2022-08-27T17:07:09.725Z,46.44
2022-08-27T17:12:37.369Z,47.72
2022-08-27T17:15:08.460Z,47.78
2022-08-27T17:17:38.529Z,47.33
2022-08-27T17:20:08.559Z,47.66
2022-08-27T17:22:35.905Z,45.62
2022-08-27T17:25:04.057Z,47.25
2022-08-27T17:27:31.575Z,47.60
2022-08-27T17:29:58.712Z,47.66
2022-08-27T17:32:26.785Z,46.71
2022-08-27T17:34:54.324Z,47.22
2022-08-27T17:37:21.553Z,47.16
2022-08-27T17:39:49.176Z,47.29
2022-08-27T17:42:17.963Z,47.15
2022-08-27T17:44:44.920Z,47.38
2022-08-27T17:47:12.518Z,48.75
2022-08-27T17:49:39.898Z,49.87
2022-08-27T17:52:13.367Z,49.87
2022-08-27T17:54:45.999Z,50.00
2022-08-27T17:57:25.751Z,50.44
2022-08-27T17:59:54.579Z,50.37
2022-08-27T18:02:38.982Z,51.51
2022-08-27T18:05:09.036Z,52.54
2022-08-27T18:07:39.810Z,53.44
2022-08-27T18:10:12.646Z,53.10
2022-08-27T18:12:41.331Z,52.77
2022-08-27T18:15:28.071Z,52.85
2022-08-27T18:17:59.252Z,50.95
2022-08-27T18:20:42.734Z,49.73
2022-08-27T18:23:14.656Z,54.50
2022-08-27T18:25:46.140Z,54.96
2022-08-27T18:28:16.312Z,56.38
2022-08-27T18:30:44.889Z,56.06
2022-08-27T18:33:13.105Z,55.91
2022-08-27T18:35:42.266Z,57.18
2022-08-27T18:38:10.259Z,57.41
2022-08-27T18:40:44.243Z,57.32
2022-08-27T18:43:15.990Z,56.79
2022-08-27T18:45:43.479Z,56.84
2022-08-27T18:48:16.875Z,56.84
2022-08-27T18:50:50.708Z,57.00
2022-08-27T18:53:21.636Z,57.23
2022-08-27T18:55:52.287Z,57.71
2022-08-27T18:58:32.202Z,57.94
2022-08-27T19:01:03.425Z,58.41
2022-08-27T19:03:36.627Z,58.32
2022-08-27T19:06:08.697Z,58.96
2022-08-27T19:08:39.869Z,59.14
2022-08-27T19:11:07.466Z,59.48
2022-08-27T19:13:34.738Z,60.87
2022-08-27T19:16:08.509Z,60.63
2022-08-27T19:18:38.311Z,59.60
2022-08-27T19:21:07.434Z,59.15
2022-08-27T19:23:36.435Z,59.73
2022-08-27T19:26:05.553Z,59.59
2022-08-27T19:28:39.534Z,59.50
2022-08-27T19:31:08.495Z,59.79
2022-08-27T19:33:36.652Z,59.74
2022-08-27T19:36:05.509Z,60.09
2022-08-27T19:38:34.301Z,60.19
2022-08-27T19:41:02.882Z,60.49
2022-08-27T19:43:30.645Z,59.85
2022-08-27T19:45:59.800Z,60.05
2022-08-27T19:48:26.847Z,60.24
2022-08-27T19:50:53.977Z,60.28
2022-08-27T19:53:21.281Z,60.65
2022-08-27T19:55:49.137Z,60.49
2022-08-27T19:58:18.944Z,61.33
2022-08-27T20:00:47.166Z,61.08
2022-08-27T20:03:15.877Z,60.57
2022-08-27T20:05:48.360Z,60.29
2022-08-27T20:08:16.618Z,61.13
2022-08-27T20:10:46.589Z,61.51
2022-08-27T20:13:13.969Z,61.24
2022-08-27T20:15:41.573Z,60.84
2022-08-27T20:18:10.391Z,60.33
2022-08-27T20:20:38.115Z,60.29
2022-08-27T20:23:06.849Z,60.95
2022-08-27T20:25:35.408Z,61.08
2022-08-27T20:28:12.435Z,61.21
2022-08-27T20:30:49.473Z,60.72
2022-08-27T20:33:16.940Z,60.58
2022-08-27T20:35:44.719Z,61.27
2022-08-27T20:38:12.049Z,61.61
2022-08-27T20:40:39.253Z,61.99
2022-08-27T20:43:06.350Z,62.57
2022-08-27T20:45:35.748Z,62.88
2022-08-27T20:48:04.818Z,62.75
2022-08-27T20:50:31.801Z,62.75
2022-08-27T20:52:59.176Z,63.53
2022-08-27T20:55:26.300Z,63.55
2022-08-27T20:58:11.848Z,63.48
2022-08-27T21:00:41.713Z,63.96
2022-08-27T21:03:11.669Z,64.34
2022-08-27T21:05:41.518Z,64.86
2022-08-27T21:08:08.932Z,65.18
2022-08-27T21:10:36.042Z,63.73
2022-08-27T21:13:07.346Z,62.66
2022-08-27T21:15:37.148Z,62.56
2022-08-27T21:18:04.251Z,62.26
2022-08-27T21:20:32.419Z,62.11
2022-08-27T21:23:00.353Z,61.87
2022-08-27T21:25:27.822Z,61.49
2022-08-27T21:28:00.441Z,61.63
2022-08-27T21:30:28.405Z,61.13
2022-08-27T21:32:56.156Z,61.67
2022-08-27T21:35:26.640Z,61.70
2022-08-27T21:37:59.316Z,61.41
2022-08-27T21:40:28.414Z,61.52
2022-08-27T21:42:58.434Z,61.47
2022-08-27T21:45:27.120Z,61.71
2022-08-27T21:48:18.484Z,62.69
2022-08-27T21:50:46.275Z,62.72
2022-08-27T21:53:13.497Z,62.93
2022-08-27T21:55:40.514Z,63.09
2022-08-27T21:58:10.850Z,62.92
2022-08-27T22:00:45.952Z,61.69
2022-08-27T22:03:20.160Z,62.09
2022-08-27T22:05:48.977Z,62.14
2022-08-27T22:08:20.139Z,62.84
2022-08-27T22:10:49.706Z,62.50
2022-08-27T22:13:17.019Z,63.29
2022-08-27T22:15:45.664Z,64.06
2022-08-27T22:18:13.528Z,63.70
2022-08-27T22:20:41.432Z,64.80
2022-08-27T22:23:11.540Z,64.96
2022-08-27T22:25:39.371Z,65.47
2022-08-27T22:28:06.392Z,65.95
2022-08-27T22:30:34.239Z,66.54
2022-08-27T22:33:02.013Z,66.63
2022-08-27T22:35:29.249Z,66.66
2022-08-27T22:37:56.549Z,66.64
2022-08-27T22:40:26.506Z,66.74
2022-08-27T22:42:56.252Z,66.93
2022-08-27T22:45:24.471Z,67.16
2022-08-27T22:47:51.498Z,67.37
2022-08-27T22:50:18.728Z,67.74
2022-08-27T22:52:46.560Z,67.48
2022-08-27T22:55:18.851Z,66.85
2022-08-27T22:57:51.182Z,67.21
2022-08-27T23:00:23.657Z,67.24
2022-08-27T23:02:50.811Z,67.31
2022-08-27T23:05:18.579Z,67.32
2022-08-27T23:07:47.355Z,67.38
2022-08-27T23:10:17.465Z,67.98
2022-08-27T23:12:46.700Z,67.81
2022-08-27T23:15:16.671Z,67.84
2022-08-27T23:17:44.581Z,68.42
2022-08-27T23:20:14.510Z,69.63
2022-08-27T23:22:42.541Z,69.17
2022-08-27T23:25:30.136Z,69.44
2022-08-27T23:27:59.747Z,69.05
2022-08-27T23:30:28.198Z,69.66
2022-08-27T23:32:55.803Z,70.07
2022-08-27T23:35:25.181Z,70.32
2022-08-27T23:37:53.079Z,70.10
2022-08-27T23:40:21.378Z,70.38
2022-08-27T23:42:49.835Z,70.27
2022-08-27T23:45:21.495Z,70.24
2022-08-27T23:47:48.869Z,70.21
2022-08-27T23:50:16.619Z,70.15
2022-08-27T23:52:44.072Z,70.63
2022-08-27T23:55:12.041Z,70.63
2022-08-27T23:57:39.953Z,70.78
